createdAt,value
2018-12-29T00:01:15.151Z,5.71
2018-12-29T00:03:47.380Z,5.64
2018-12-29T00:06:19.260Z,5.74
2018-12-29T00:08:51.224Z,5.81
2018-12-29T00:11:23.351Z,5.79
2018-12-29T00:13:55.620Z,5.80
2018-12-29T00:16:27.624Z,5.71
2018-12-29T00:18:59.567Z,5.69
2018-12-29T00:21:33.163Z,5.75
2018-12-29T00:24:05.049Z,5.65
2018-12-29T00:26:37.275Z,5.44
2018-12-29T00:29:10.860Z,5.40
2018-12-29T00:31:42.852Z,5.23
2018-12-29T00:34:14.734Z,5.27
2018-12-29T00:36:46.608Z,5.31
2018-12-29T00:39:18.738Z,5.25
2018-12-29T00:41:50.591Z,5.20
2018-12-29T00:44:22.512Z,5.26
2018-12-29T00:46:54.412Z,5.25
2018-12-29T00:49:26.260Z,5.35
2018-12-29T00:51:58.163Z,5.36
2018-12-29T00:54:30.001Z,5.49
2018-12-29T00:57:01.887Z,5.47
2018-12-29T00:59:33.803Z,5.45
2018-12-29T01:02:05.726Z,5.49
2018-12-29T01:04:37.625Z,5.46
2018-12-29T01:07:22.968Z,5.37
2018-12-29T01:13:09.551Z,5.24
2018-12-29T01:15:46.006Z,5.23
2018-12-29T01:19:59.849Z,5.43
2018-12-29T01:20:58.685Z,5.38
2018-12-29T01:23:33.417Z,5.36
2018-12-29T01:26:08.562Z,5.31
2018-12-29T01:28:42.491Z,5.28
2018-12-29T01:31:21.807Z,5.19
2018-12-29T01:33:54.192Z,5.17
2018-12-29T01:36:26.042Z,5.08
2018-12-29T01:38:58.914Z,5.15
2018-12-29T01:41:30.869Z,5.15
2018-12-29T01:44:05.781Z,5.03
2018-12-29T01:46:39.828Z,5.06
2018-12-29T01:49:11.704Z,4.88
2018-12-29T01:51:45.094Z,4.86
2018-12-29T01:54:16.927Z,4.82
2018-12-29T01:56:50.497Z,4.88
2018-12-29T01:59:23.371Z,4.87
2018-12-29T02:01:55.269Z,4.90
2018-12-29T02:04:28.584Z,4.89
2018-12-29T02:09:56.847Z,4.93
2018-12-29T02:12:33.729Z,4.87
2018-12-29T02:15:10.259Z,4.81
2018-12-29T02:18:19.752Z,4.88
2018-12-29T02:20:37.613Z,4.89
2018-12-29T02:23:16.431Z,4.98
2018-12-29T02:25:55.577Z,4.99
2018-12-29T02:28:31.459Z,5.09
2018-12-29T02:31:09.904Z,5.01
2018-12-29T02:33:47.119Z,5.02
2018-12-29T02:36:22.969Z,4.96
2018-12-29T02:39:01.531Z,4.97
2018-12-29T02:41:42.481Z,4.83
2018-12-29T02:44:20.159Z,4.97
2018-12-29T02:49:41.976Z,4.92
2018-12-29T02:52:21.912Z,4.90
2018-12-29T02:54:59.125Z,4.82
2018-12-29T02:57:33.338Z,4.90
2018-12-29T03:00:11.303Z,4.91
2018-12-29T03:02:43.186Z,4.80
2018-12-29T03:05:15.512Z,4.89
2018-12-29T03:07:47.408Z,4.90
2018-12-29T03:10:22.151Z,4.94
2018-12-29T03:12:54.138Z,5.03
2018-12-29T03:15:26.045Z,5.14
2018-12-29T03:17:57.942Z,5.14
2018-12-29T03:20:30.461Z,4.91
2018-12-29T03:23:02.294Z,4.89
2018-12-29T03:25:36.901Z,4.78
2018-12-29T03:28:08.806Z,4.75
2018-12-29T03:30:44.394Z,4.66
2018-12-29T03:33:16.364Z,4.67
2018-12-29T03:35:48.261Z,4.67
2018-12-29T03:38:20.093Z,4.65
2018-12-29T03:40:52.156Z,4.53
2018-12-29T03:43:24.142Z,4.49
2018-12-29T03:45:56.046Z,4.58
2018-12-29T03:48:27.909Z,4.54
2018-12-29T03:50:59.803Z,4.54
2018-12-29T03:53:31.691Z,4.53
2018-12-29T03:56:03.631Z,4.50
2018-12-29T03:58:35.583Z,4.47
2018-12-29T04:01:07.439Z,4.40
2018-12-29T04:03:39.533Z,4.48
2018-12-29T04:06:12.991Z,4.67
2018-12-29T04:09:40.727Z,4.71
2018-12-29T04:12:20.565Z,4.70
2018-12-29T04:14:54.089Z,4.72
2018-12-29T04:17:27.588Z,4.63
2018-12-29T04:20:03.547Z,4.60
2018-12-29T04:22:37.041Z,4.64
2018-12-29T04:25:09.500Z,4.59
2018-12-29T04:27:41.773Z,4.52
2018-12-29T04:30:16.694Z,4.42
2018-12-29T04:32:49.928Z,4.37
2018-12-29T04:35:23.974Z,4.36
2018-12-29T04:37:58.648Z,4.41
2018-12-29T04:40:30.531Z,4.49
2018-12-29T04:43:02.805Z,4.41
2018-12-29T04:45:34.718Z,4.22
2018-12-29T04:48:06.608Z,4.14
2018-12-29T04:50:38.448Z,4.12
2018-12-29T04:53:10.811Z,4.15
2018-12-29T04:55:42.702Z,4.15
2018-12-29T04:58:14.590Z,4.19
2018-12-29T05:00:50.203Z,4.20
2018-12-29T05:03:22.044Z,4.18
2018-12-29T05:05:53.966Z,4.22
2018-12-29T05:08:28.917Z,4.26
2018-12-29T05:11:00.838Z,4.34
2018-12-29T05:13:32.743Z,4.31
2018-12-29T05:16:04.664Z,4.42
2018-12-29T05:18:36.961Z,4.50
2018-12-29T05:21:08.950Z,4.20
2018-12-29T05:23:41.226Z,4.13
2018-12-29T05:26:13.349Z,4.10
2018-12-29T05:28:47.653Z,4.05
2018-12-29T05:31:19.634Z,4.01
2018-12-29T05:33:51.526Z,4.00
2018-12-29T05:36:24.888Z,3.94
2018-12-29T05:38:56.776Z,4.00
2018-12-29T05:41:32.717Z,3.98
2018-12-29T05:44:04.549Z,3.98
2018-12-29T05:46:36.461Z,3.92
2018-12-29T05:49:08.433Z,3.93
2018-12-29T05:51:40.328Z,3.95
2018-12-29T05:54:12.324Z,3.87
2018-12-29T05:56:47.198Z,3.76
2018-12-29T05:59:23.075Z,3.92
2018-12-29T06:01:54.980Z,3.84
2018-12-29T06:04:26.883Z,3.88
2018-12-29T06:06:59.855Z,3.89
2018-12-29T06:09:31.693Z,3.94
2018-12-29T06:12:03.589Z,3.96
2018-12-29T06:14:35.512Z,4.06
2018-12-29T06:17:11.557Z,3.96
2018-12-29T06:19:43.778Z,3.93
2018-12-29T06:22:15.722Z,3.90
2018-12-29T06:24:47.761Z,3.83
2018-12-29T06:27:27.842Z,3.74
2018-12-29T06:30:06.025Z,3.76
2018-12-29T06:32:53.103Z,3.69
2018-12-29T06:35:25.028Z,3.65
2018-12-29T06:37:56.957Z,3.69
2018-12-29T06:40:28.845Z,3.61
2018-12-29T06:43:00.734Z,3.74
2018-12-29T06:45:32.879Z,3.80
2018-12-29T06:48:04.761Z,3.78
2018-12-29T06:50:36.616Z,3.84
2018-12-29T06:53:08.514Z,3.75
2018-12-29T06:55:40.901Z,3.68
2018-12-29T06:58:12.788Z,3.76
2018-12-29T07:00:44.643Z,3.77
2018-12-29T07:03:16.615Z,3.65
2018-12-29T07:05:48.507Z,3.70
2018-12-29T07:08:20.720Z,3.77
2018-12-29T07:10:52.600Z,3.77
2018-12-29T07:13:24.458Z,3.64
2018-12-29T07:15:56.428Z,3.65
2018-12-29T07:18:28.293Z,3.72
2018-12-29T07:21:00.139Z,3.69
2018-12-29T07:23:32.076Z,3.77
2018-12-29T07:26:03.973Z,3.64
2018-12-29T07:28:37.441Z,3.64
2018-12-29T07:31:09.435Z,3.67
2018-12-29T07:33:41.478Z,3.72
2018-12-29T07:36:13.313Z,3.80
2018-12-29T07:38:47.502Z,3.93
2018-12-29T07:41:19.366Z,3.99
2018-12-29T07:43:51.247Z,3.81
2018-12-29T07:46:23.096Z,3.79
2018-12-29T07:48:54.997Z,3.80
2018-12-29T07:51:26.835Z,3.82
2018-12-29T07:53:58.772Z,3.80
2018-12-29T07:56:30.632Z,3.75
2018-12-29T07:59:02.534Z,3.69
2018-12-29T08:01:34.372Z,3.66
2018-12-29T08:04:07.256Z,3.58
2018-12-29T08:06:39.102Z,3.45
2018-12-29T08:09:11.019Z,3.45
2018-12-29T08:11:43.069Z,3.53
2018-12-29T08:14:14.993Z,3.54
2018-12-29T08:16:46.904Z,3.49
2018-12-29T08:19:18.744Z,3.54
2018-12-29T08:21:50.640Z,3.63
2018-12-29T08:24:22.553Z,3.69
2018-12-29T08:26:54.433Z,3.69
2018-12-29T08:29:26.708Z,3.76
2018-12-29T08:31:58.589Z,3.89
2018-12-29T08:34:30.439Z,3.99
2018-12-29T08:37:02.312Z,4.03
2018-12-29T08:39:34.209Z,4.09
2018-12-29T08:42:06.109Z,4.02
2018-12-29T08:44:38.118Z,4.13
2018-12-29T08:47:10.296Z,4.20
2018-12-29T08:49:42.178Z,4.30
2018-12-29T08:52:14.048Z,4.41
2018-12-29T08:54:46.014Z,4.58
2018-12-29T08:57:18.366Z,4.66
2018-12-29T08:59:50.259Z,4.75
2018-12-29T09:02:22.162Z,4.89
2018-12-29T09:04:58.307Z,5.00
2018-12-29T09:07:36.252Z,4.98
2018-12-29T09:10:06.033Z,5.05
2018-12-29T09:12:39.258Z,5.19
2018-12-29T09:15:11.494Z,5.29
2018-12-29T09:17:46.039Z,5.42
2018-12-29T09:20:17.915Z,5.68
2018-12-29T09:22:51.354Z,5.86
2018-12-29T09:25:23.461Z,6.15
2018-12-29T09:27:55.604Z,7.04
2018-12-29T09:30:29.537Z,8.60
2018-12-29T09:33:01.600Z,11.74
2018-12-29T09:35:37.080Z,14.55
2018-12-29T09:38:09.050Z,16.47
2018-12-29T09:40:41.285Z,18.66
2018-12-29T09:43:13.629Z,20.74
2018-12-29T09:45:45.843Z,21.92
2018-12-29T09:48:18.171Z,22.01
2018-12-29T09:50:50.871Z,21.71
2018-12-29T09:53:24.036Z,21.52
2018-12-29T09:55:56.449Z,21.24
2018-12-29T09:58:28.286Z,21.80
2018-12-29T10:01:00.557Z,21.61
2018-12-29T10:03:32.894Z,23.35
2018-12-29T10:06:05.156Z,25.40
2018-12-29T10:08:37.166Z,27.39
2018-12-29T10:11:09.354Z,28.59
2018-12-29T10:13:41.388Z,29.54
2018-12-29T10:16:13.669Z,29.87
2018-12-29T10:18:45.754Z,30.95
2018-12-29T10:21:17.797Z,29.84
2018-12-29T10:23:50.864Z,30.81
2018-12-29T10:26:22.883Z,30.21
2018-12-29T10:28:54.880Z,29.87
2018-12-29T10:31:26.731Z,28.53
2018-12-29T10:33:58.661Z,28.59
2018-12-29T10:36:30.493Z,27.95
2018-12-29T10:39:02.499Z,28.47
2018-12-29T10:41:35.918Z,27.81
2018-12-29T10:44:07.810Z,28.92
2018-12-29T10:46:39.707Z,26.99
2018-12-29T10:49:11.905Z,28.77
2018-12-29T10:51:43.792Z,28.76
2018-12-29T10:54:15.743Z,27.54
2018-12-29T10:56:47.644Z,28.82
2018-12-29T10:59:19.666Z,28.64
2018-12-29T11:01:51.538Z,27.58
2018-12-29T11:04:23.729Z,28.05
2018-12-29T11:06:57.554Z,28.76
2018-12-29T11:09:29.885Z,28.52
2018-12-29T11:12:01.765Z,27.77
2018-12-29T11:14:34.037Z,26.81
2018-12-29T11:17:07.303Z,27.27
2018-12-29T11:19:39.346Z,25.38
2018-12-29T11:22:11.473Z,24.55
2018-12-29T11:24:43.693Z,25.29
2018-12-29T11:27:17.853Z,24.97
2018-12-29T11:29:51.728Z,25.19
2018-12-29T11:32:23.729Z,25.86
2018-12-29T11:34:55.966Z,25.45
2018-12-29T11:37:28.333Z,25.11
2018-12-29T11:40:01.687Z,24.63
2018-12-29T11:42:36.143Z,23.82
2018-12-29T11:45:08.044Z,23.66
2018-12-29T11:47:40.224Z,24.43
2018-12-29T11:50:12.257Z,26.25
2018-12-29T11:52:44.152Z,25.21
2018-12-29T11:55:17.225Z,25.78
2018-12-29T11:57:49.306Z,26.49
2018-12-29T12:00:21.536Z,26.83
2018-12-29T12:02:53.977Z,25.06
2018-12-29T12:05:26.096Z,23.58
2018-12-29T12:07:58.266Z,24.17
2018-12-29T12:10:30.467Z,24.08
2018-12-29T12:13:02.481Z,24.60
2018-12-29T12:15:37.713Z,24.67
2018-12-29T12:18:10.124Z,25.89
2018-12-29T12:20:42.116Z,25.81
2018-12-29T12:23:14.206Z,23.83
2018-12-29T12:25:46.311Z,24.01
2018-12-29T12:28:18.203Z,23.04
2018-12-29T12:30:50.101Z,22.56
2018-12-29T12:33:22.200Z,22.17
2018-12-29T12:35:54.593Z,22.85
2018-12-29T12:38:26.806Z,22.52
2018-12-29T12:41:00.794Z,23.05
2018-12-29T12:43:32.751Z,21.36
2018-12-29T12:46:04.959Z,21.11
2018-12-29T12:48:37.055Z,20.85
2018-12-29T12:51:09.504Z,21.29
2018-12-29T12:53:43.455Z,21.47
2018-12-29T12:56:19.274Z,20.93
2018-12-29T12:58:51.522Z,21.13
2018-12-29T13:01:24.127Z,21.10
2018-12-29T13:03:56.250Z,21.50
2018-12-29T13:06:28.219Z,22.35
2018-12-29T13:09:02.185Z,21.29
2018-12-29T13:11:35.836Z,20.52
2018-12-29T13:14:07.778Z,20.50
2018-12-29T13:16:39.614Z,20.42
2018-12-29T13:19:11.513Z,20.48
2018-12-29T13:21:43.647Z,19.61
2018-12-29T13:24:16.071Z,19.29
2018-12-29T13:26:48.239Z,17.75
2018-12-29T13:29:23.518Z,16.95
2018-12-29T13:31:55.548Z,16.42
2018-12-29T13:34:28.039Z,16.19
2018-12-29T13:37:00.018Z,16.33
2018-12-29T13:39:32.082Z,16.42
2018-12-29T13:42:04.204Z,16.04
2018-12-29T13:44:36.213Z,16.05
2018-12-29T13:47:08.335Z,15.92
2018-12-29T13:49:40.365Z,15.91
2018-12-29T13:52:12.363Z,15.89
2018-12-29T13:54:44.557Z,15.94
2018-12-29T13:57:16.833Z,16.01
2018-12-29T13:59:51.574Z,15.86
2018-12-29T14:02:23.798Z,15.85
2018-12-29T14:05:00.603Z,15.93
2018-12-29T14:07:34.348Z,16.08
2018-12-29T14:10:06.593Z,16.18
2018-12-29T14:12:39.043Z,16.13
2018-12-29T14:15:11.244Z,16.13
2018-12-29T14:17:43.518Z,16.11
2018-12-29T14:20:15.673Z,15.95
2018-12-29T14:22:47.811Z,15.97
2018-12-29T14:25:21.176Z,16.21
2018-12-29T14:27:53.964Z,15.97
2018-12-29T14:30:26.251Z,16.12
2018-12-29T14:32:58.619Z,16.16
2018-12-29T14:35:30.739Z,16.06
2018-12-29T14:38:03.140Z,16.03
2018-12-29T14:40:35.536Z,16.21
2018-12-29T14:43:07.500Z,16.04
2018-12-29T14:45:39.617Z,16.16
2018-12-29T14:48:12.025Z,16.11
2018-12-29T14:50:44.035Z,15.90
2018-12-29T14:53:16.398Z,15.98
2018-12-29T14:55:48.649Z,16.07
2018-12-29T14:58:20.957Z,15.88
2018-12-29T15:00:56.790Z,15.68
2018-12-29T15:03:30.473Z,15.73
2018-12-29T15:06:02.847Z,15.67
2018-12-29T15:08:34.988Z,15.60
2018-12-29T15:11:07.411Z,15.61
2018-12-29T15:13:39.513Z,15.53
2018-12-29T15:16:11.730Z,15.49
2018-12-29T15:18:44.043Z,15.50
2018-12-29T15:21:16.260Z,15.60
2018-12-29T15:23:48.273Z,15.53
2018-12-29T15:26:20.941Z,15.59
2018-12-29T15:28:53.416Z,15.54
2018-12-29T15:31:25.971Z,15.50
2018-12-29T15:33:58.176Z,15.50
2018-12-29T15:36:30.840Z,15.55
2018-12-29T15:39:04.152Z,15.48
2018-12-29T15:41:36.531Z,15.54
2018-12-29T15:44:09.198Z,15.44
2018-12-29T15:46:41.406Z,15.43
2018-12-29T15:49:13.703Z,15.44
2018-12-29T15:51:45.686Z,15.34
2018-12-29T15:54:17.662Z,15.39
2018-12-29T15:56:49.715Z,15.41
2018-12-29T15:59:21.862Z,15.27
2018-12-29T16:01:53.848Z,15.30
2018-12-29T16:04:26.071Z,15.28
2018-12-29T16:06:59.279Z,15.21
2018-12-29T16:09:31.954Z,15.17
2018-12-29T16:12:04.188Z,15.15
2018-12-29T16:14:36.340Z,15.13
2018-12-29T16:17:08.596Z,15.07
2018-12-29T16:19:40.865Z,15.01
2018-12-29T16:22:12.979Z,14.95
2018-12-29T16:24:44.825Z,14.87
2018-12-29T16:27:17.309Z,14.82
2018-12-29T16:29:49.183Z,14.74
2018-12-29T16:32:21.364Z,14.66
2018-12-29T16:34:53.287Z,14.57
2018-12-29T16:37:27.181Z,14.52
2018-12-29T16:39:59.412Z,14.30
2018-12-29T16:42:31.961Z,14.16
2018-12-29T16:45:04.452Z,14.06
2018-12-29T16:47:36.964Z,13.97
2018-12-29T16:50:10.686Z,13.93
2018-12-29T16:52:42.931Z,13.84
2018-12-29T16:55:15.525Z,13.64
2018-12-29T16:57:47.712Z,13.41
2018-12-29T17:00:22.028Z,13.20
2018-12-29T17:02:54.146Z,13.11
2018-12-29T17:05:26.651Z,12.98
2018-12-29T17:07:58.993Z,12.80
2018-12-29T17:10:32.219Z,12.68
2018-12-29T17:13:04.137Z,12.57
2018-12-29T17:15:36.022Z,12.48
2018-12-29T17:18:08.224Z,12.34
2018-12-29T17:20:40.372Z,12.31
2018-12-29T17:23:12.810Z,12.20
2018-12-29T17:25:45.242Z,12.07
2018-12-29T17:28:17.276Z,11.91
2018-12-29T17:30:49.396Z,11.85
2018-12-29T17:33:21.486Z,11.80
2018-12-29T17:35:53.598Z,11.56
2018-12-29T17:38:25.611Z,11.84
2018-12-29T17:40:58.049Z,11.76
2018-12-29T17:43:30.057Z,11.67
2018-12-29T17:46:02.312Z,11.55
2018-12-29T17:48:34.292Z,11.36
2018-12-29T17:51:07.915Z,11.23
2018-12-29T17:53:47.736Z,11.10
2018-12-29T17:56:14.061Z,10.96
2018-12-29T17:58:45.997Z,10.94
2018-12-29T18:01:17.933Z,10.81
2018-12-29T18:03:49.879Z,10.62
2018-12-29T18:06:21.902Z,10.60
2018-12-29T18:08:54.867Z,10.44
2018-12-29T18:11:26.785Z,10.33
2018-12-29T18:13:59.113Z,10.20
2018-12-29T18:16:32.706Z,10.09
2018-12-29T18:19:07.299Z,10.13
2018-12-29T18:21:42.035Z,9.97
2018-12-29T18:24:15.087Z,9.92
2018-12-29T18:26:47.062Z,9.79
2018-12-29T18:29:19.093Z,9.68
2018-12-29T18:31:51.252Z,9.64
2018-12-29T18:34:23.186Z,9.59
2018-12-29T18:36:55.459Z,9.60
2018-12-29T18:39:28.479Z,9.60
2018-12-29T18:42:00.386Z,9.54
2018-12-29T18:44:32.704Z,9.46
2018-12-29T18:47:04.608Z,9.35
2018-12-29T18:49:38.680Z,9.28
2018-12-29T18:52:10.615Z,9.19
2018-12-29T18:54:42.574Z,9.15
2018-12-29T18:57:17.125Z,9.06
2018-12-29T18:59:49.134Z,8.96
2018-12-29T19:02:21.449Z,8.85
2018-12-29T19:04:53.347Z,8.82
2018-12-29T19:07:25.552Z,8.75
2018-12-29T19:09:57.904Z,8.70
2018-12-29T19:12:29.870Z,8.74
2018-12-29T19:15:03.617Z,8.98
2018-12-29T19:17:36.733Z,9.03
2018-12-29T19:20:11.998Z,9.05
2018-12-29T19:22:43.942Z,8.86
2018-12-29T19:25:15.821Z,8.80
2018-12-29T19:27:47.751Z,8.95
2018-12-29T19:30:20.177Z,8.98
2018-12-29T19:32:52.482Z,8.90
2018-12-29T19:35:24.499Z,8.83
2018-12-29T19:37:56.462Z,8.84
2018-12-29T19:40:28.496Z,8.73
2018-12-29T19:43:00.841Z,8.76
2018-12-29T19:45:36.174Z,8.89
2018-12-29T19:48:08.264Z,8.92
2018-12-29T19:50:41.146Z,8.75
2018-12-29T19:53:13.708Z,8.87
2018-12-29T19:55:51.887Z,9.05
2018-12-29T19:58:24.895Z,9.01
2018-12-29T20:00:57.784Z,9.01
2018-12-29T20:03:29.865Z,9.37
2018-12-29T20:06:01.800Z,9.45
2018-12-29T20:08:34.295Z,9.39
2018-12-29T20:11:06.308Z,9.33
2018-12-29T20:13:38.407Z,9.30
2018-12-29T20:16:10.420Z,9.33
2018-12-29T20:18:42.379Z,9.36
2018-12-29T20:21:14.328Z,9.32
2018-12-29T20:23:46.229Z,9.38
2018-12-29T20:26:18.169Z,9.50
2018-12-29T20:28:51.531Z,9.58
2018-12-29T20:31:23.576Z,9.50
2018-12-29T20:33:57.851Z,9.69
2018-12-29T20:36:29.795Z,9.57
2018-12-29T20:39:04.389Z,9.63
2018-12-29T20:41:36.715Z,9.67
2018-12-29T20:44:09.270Z,9.64
2018-12-29T20:46:43.503Z,9.64
2018-12-29T20:49:15.585Z,9.57
2018-12-29T20:51:47.618Z,9.46
2018-12-29T20:54:19.543Z,9.50
2018-12-29T20:56:51.471Z,9.33
2018-12-29T20:59:23.358Z,9.21
2018-12-29T21:01:55.294Z,9.08
2018-12-29T21:04:27.335Z,9.07
2018-12-29T21:06:59.780Z,8.89
2018-12-29T21:09:31.840Z,8.87
2018-12-29T21:12:04.332Z,8.94
2018-12-29T21:14:36.304Z,8.83
2018-12-29T21:17:10.512Z,8.78
2018-12-29T21:19:42.567Z,8.80
2018-12-29T21:22:15.000Z,8.83
2018-12-29T21:24:47.551Z,9.01
2018-12-29T21:27:21.406Z,9.08
2018-12-29T21:29:53.370Z,9.04
2018-12-29T21:32:25.281Z,9.35
2018-12-29T21:34:59.869Z,9.16
2018-12-29T21:37:32.309Z,9.16
2018-12-29T21:40:04.466Z,9.35
2018-12-29T21:42:38.225Z,9.60
2018-12-29T21:45:10.262Z,9.60
2018-12-29T21:47:42.244Z,9.88
2018-12-29T21:50:25.376Z,10.17
2018-12-29T21:52:52.336Z,10.06
2018-12-29T21:55:24.298Z,9.96
2018-12-29T21:57:56.181Z,9.90
2018-12-29T22:00:28.114Z,9.93
2018-12-29T22:03:00.073Z,9.90
2018-12-29T22:05:32.113Z,9.74
2018-12-29T22:08:03.927Z,9.67
2018-12-29T22:10:35.887Z,9.76
2018-12-29T22:13:07.801Z,9.72
2018-12-29T22:15:40.295Z,9.65
2018-12-29T22:18:12.186Z,9.58
2018-12-29T22:20:44.080Z,9.48
2018-12-29T22:23:15.943Z,9.75
2018-12-29T22:25:48.624Z,9.71
2018-12-29T22:28:22.374Z,9.53
2018-12-29T22:30:54.253Z,9.51
2018-12-29T22:33:26.173Z,9.52
2018-12-29T22:35:58.009Z,9.28
2018-12-29T22:38:30.289Z,9.20
2018-12-29T22:41:03.818Z,9.10
2018-12-29T22:43:36.471Z,9.20
2018-12-29T22:46:08.550Z,9.30
2018-12-29T22:48:40.523Z,9.27
2018-12-29T22:51:12.420Z,9.38
2018-12-29T22:53:44.353Z,9.53
2018-12-29T22:56:16.308Z,9.42
2018-12-29T22:58:48.550Z,9.48
2018-12-29T23:01:22.485Z,9.34
2018-12-29T23:03:54.813Z,9.16
2018-12-29T23:06:28.858Z,9.20
2018-12-29T23:09:01.595Z,9.24
2018-12-29T23:11:34.072Z,9.19
2018-12-29T23:14:09.245Z,9.31
2018-12-29T23:16:41.161Z,9.27
2018-12-29T23:19:13.313Z,9.33
2018-12-29T23:21:45.345Z,9.79
2018-12-29T23:24:17.720Z,10.71
2018-12-29T23:26:52.179Z,10.30
2018-12-29T23:29:25.360Z,9.94
2018-12-29T23:31:58.538Z,9.72
2018-12-29T23:34:31.394Z,9.76
2018-12-29T23:37:05.209Z,9.50
2018-12-29T23:39:39.896Z,9.40
2018-12-29T23:42:11.946Z,9.39
2018-12-29T23:44:43.820Z,9.78
2018-12-29T23:47:15.633Z,9.76
2018-12-29T23:49:50.178Z,9.49
2018-12-29T23:52:23.357Z,9.31
2018-12-29T23:54:59.061Z,9.18
2018-12-29T23:57:32.819Z,8.98
